Time;durP1;ratioP1;P1;durP2;ratioP2;P2;SDS_P1;SDS_P2;PMS_P1;PMS_P2;Temp;Humidity;BMP_temperature;BMP_pressure;BME280_temperature;BME280_humidity;BME280_pressure;Samples;Min_cycle;Max_cycle;Signal;HPM_P1;HPM_P2
2023/10/04 00:02:17;;;;;;;7.90;1.30;;;;;;;11.35;100.00;101903.97;5105766;28;20507;-79
2023/10/04 00:05:02;;;;;;;6.28;1.40;;;;;;;11.33;100.00;101900.59;5110193;28;20169;-79
2023/10/04 00:07:47;;;;;;;5.28;1.55;;;;;;;11.31;100.00;101888.94;5090376;28;20038;-79
2023/10/04 00:10:32;;;;;;;5.60;1.30;;;;;;;11.33;100.00;101889.47;5085164;28;20100;-79
2023/10/04 00:13:16;;;;;;;7.10;1.50;;;;;;;11.29;100.00;101891.13;5067591;28;20043;-78
2023/10/04 00:16:02;;;;;;;7.35;1.30;;;;;;;11.32;100.00;101893.38;5103617;28;20042;-79
2023/10/04 00:18:47;;;;;;;7.50;1.67;;;;;;;11.28;100.00;101888.59;5100482;28;20066;-79
2023/10/04 00:21:31;;;;;;;8.63;1.50;;;;;;;11.30;100.00;101887.22;5106265;28;20114;-79
2023/10/04 00:24:15;;;;;;;5.63;1.30;;;;;;;11.26;100.00;101888.88;5105312;28;20101;-79
2023/10/04 00:26:59;;;;;;;6.55;1.40;;;;;;;11.25;100.00;101887.19;5120721;28;20034;-79
2023/10/04 00:29:44;;;;;;;6.38;1.50;;;;;;;11.19;100.00;101883.53;5097207;28;20391;-79
2023/10/04 00:32:28;;;;;;;6.90;1.42;;;;;;;11.23;100.00;101886.63;5098205;28;20077;-79
2023/10/04 00:35:19;;;;;;;7.18;1.67;;;;;;;11.22;100.00;101893.28;5112931;28;20091;-79
2023/10/04 00:38:05;;;;;;;8.63;1.25;;;;;;;11.15;100.00;101887.94;5093491;28;20128;-79
2023/10/04 00:40:50;;;;;;;6.28;1.33;;;;;;;11.17;100.00;101890.44;5116552;28;20039;-79
2023/10/04 00:43:47;;;;;;;8.32;1.80;;;;;;;11.12;100.00;101896.00;5106602;28;20034;-79
2023/10/04 00:46:34;;;;;;;7.40;1.40;;;;;;;11.10;100.00;101900.97;5099068;28;20097;-79
2023/10/04 00:49:18;;;;;;;8.30;1.40;;;;;;;11.06;100.00;101910.94;5092483;28;20555;-79
2023/10/04 00:52:03;;;;;;;4.95;1.10;;;;;;;11.07;100.00;101919.00;5109702;28;20074;-79
2023/10/04 00:54:47;;;;;;;9.45;1.50;;;;;;;10.98;100.00;101914.19;5088813;28;20088;-79
2023/10/04 00:57:31;;;;;;;9.25;1.50;;;;;;;10.95;100.00;101908.06;5070659;28;20055;-79
2023/10/04 01:00:17;;;;;;;7.55;1.50;;;;;;;10.93;100.00;101912.22;5081578;28;20388;-79
2023/10/04 01:03:01;;;;;;;7.90;1.50;;;;;;;10.89;100.00;101914.69;5104872;28;20127;-78
2023/10/04 01:05:46;;;;;;;8.50;1.60;;;;;;;10.86;100.00;101908.78;5104997;28;20046;-79
2023/10/04 01:08:32;;;;;;;5.30;1.30;;;;;;;10.83;100.00;101906.53;5096273;28;20043;-78
2023/10/04 01:11:17;;;;;;;4.53;1.08;;;;;;;10.80;100.00;101907.06;5103926;28;20069;-79
2023/10/04 01:14:20;;;;;;;6.65;1.20;;;;;;;10.78;100.00;101893.44;5120469;28;20047;-79
2023/10/04 01:17:04;;;;;;;4.90;1.15;;;;;;;10.77;100.00;101902.03;5113246;28;20383;-78
2023/10/04 01:19:48;;;;;;;6.85;1.63;;;;;;;10.78;100.00;101903.69;5060745;28;20130;-78
2023/10/04 01:22:32;;;;;;;9.88;1.45;;;;;;;10.76;100.00;101895.63;5103225;28;20420;-78
2023/10/04 01:25:19;;;;;;;8.05;1.35;;;;;;;10.73;100.00;101893.38;5086472;28;20067;-78
2023/10/04 01:28:11;;;;;;;5.03;1.30;;;;;;;10.73;100.00;101890.59;5092331;28;20070;-79
2023/10/04 01:30:59;;;;;;;5.60;0.88;;;;;;;10.65;100.00;101900.25;5079485;28;20100;-79
2023/10/04 01:33:43;;;;;;;6.97;1.00;;;;;;;10.63;100.00;101890.47;5074521;28;20043;-79
2023/10/04 01:36:27;;;;;;;6.40;1.25;;;;;;;10.62;100.00;101889.66;5119051;28;20042;-78
2023/10/04 01:39:18;;;;;;;7.72;1.60;;;;;;;10.60;100.00;101891.84;5108886;28;20054;-79
2023/10/04 01:42:03;;;;;;;5.05;1.10;;;;;;;10.59;100.00;101883.78;5106222;28;20104;-79
2023/10/04 01:44:47;;;;;;;7.65;1.13;;;;;;;10.56;100.00;101881.50;5086375;28;20498;-79
2023/10/04 01:47:31;;;;;;;5.03;1.13;;;;;;;10.49;100.00;101885.31;5094799;28;20492;-78
2023/10/04 01:50:15;;;;;;;6.50;1.10;;;;;;;10.47;100.00;101884.78;5092416;28;20038;-79
2023/10/04 01:53:01;;;;;;;3.83;0.98;;;;;;;10.45;100.00;101889.72;5124553;28;20047;-79
2023/10/04 01:55:45;;;;;;;5.15;1.08;;;;;;;10.40;100.00;101883.28;5108324;27;20123;-79
2023/10/04 01:58:29;;;;;;;5.35;1.30;;;;;;;10.39;100.00;101885.22;5104255;28;20062;-79
2023/10/04 02:01:13;;;;;;;5.65;1.30;;;;;;;10.35;100.00;101872.94;5089120;28;20388;-78
2023/10/04 02:04:03;;;;;;;7.32;1.17;;;;;;;10.32;100.00;101879.00;5083117;28;20066;-79
2023/10/04 02:06:48;;;;;;;4.07;1.00;;;;;;;10.31;100.00;101882.03;5086367;28;20035;-79
2023/10/04 02:09:32;;;;;;;3.55;0.77;;;;;;;10.27;100.00;101874.22;5122687;28;20034;-79
2023/10/04 02:12:18;;;;;;;5.30;1.10;;;;;;;10.22;100.00;101888.03;5102356;28;20069;-79
2023/10/04 02:15:02;;;;;;;4.75;1.08;;;;;;;10.17;100.00;101882.41;5120722;28;20127;-79
2023/10/04 02:17:47;;;;;;;8.48;1.20;;;;;;;10.17;100.00;101876.00;5125068;28;20380;-78
2023/10/04 02:20:32;;;;;;;3.60;1.23;;;;;;;10.13;100.00;101874.84;5115094;28;20039;-79
2023/10/04 02:23:18;;;;;;;6.55;1.25;;;;;;;10.15;100.00;101878.22;5085249;28;20039;-78
2023/10/04 02:26:05;;;;;;;3.70;1.13;;;;;;;10.15;100.00;101869.88;5084550;28;20034;-78
2023/10/04 02:28:51;;;;;;;4.43;0.80;;;;;;;10.11;100.00;101871.50;5124491;28;20348;-79
2023/10/04 02:31:36;;;;;;;3.17;0.95;;;;;;;10.07;100.00;101862.84;5107977;27;20054;-79
2023/10/04 02:34:21;;;;;;;4.70;1.10;;;;;;;10.07;100.00;101862.84;5099063;28;20370;-79
2023/10/04 02:37:06;;;;;;;5.82;1.08;;;;;;;10.03;100.00;101867.25;5109992;28;20055;-78
2023/10/04 02:39:51;;;;;;;3.63;0.93;;;;;;;10.07;100.00;101871.19;5102094;28;20092;-78
2023/10/04 02:42:35;;;;;;;5.20;1.30;;;;;;;10.01;100.00;101873.03;5079589;28;20101;-78
2023/10/04 02:45:19;;;;;;;5.93;1.20;;;;;;;9.98;100.00;101876.34;5110718;28;20176;-78
2023/10/04 02:48:04;;;;;;;4.68;1.10;;;;;;;9.98;100.00;101870.78;5102480;28;20035;-79
2023/10/04 02:50:49;;;;;;;5.80;1.10;;;;;;;9.94;100.00;101871.53;5095132;28;20104;-78
2023/10/04 02:53:34;;;;;;;5.15;1.00;;;;;;;9.95;100.00;101876.84;5077298;28;20039;-79
2023/10/04 02:56:18;;;;;;;5.80;1.17;;;;;;;9.94;100.00;101868.78;5091071;28;20092;-78
2023/10/04 02:59:03;;;;;;;3.72;1.00;;;;;;;9.92;100.00;101868.19;5102581;28;20383;-78
2023/10/04 03:01:47;;;;;;;3.97;1.10;;;;;;;9.97;100.00;101873.81;5109830;28;20093;-79
2023/10/04 03:04:31;;;;;;;4.82;1.33;;;;;;;9.99;100.00;101874.41;5108957;28;20042;-78
2023/10/04 03:07:15;;;;;;;4.80;1.55;;;;;;;9.93;100.00;101883.75;5109548;28;20060;-78
2023/10/04 03:09:59;;;;;;;5.88;1.05;;;;;;;9.94;100.00;101869.59;5104970;28;20039;-78
2023/10/04 03:12:45;;;;;;;3.47;1.27;;;;;;;9.88;100.00;101867.03;5109069;28;20092;-78
2023/10/04 03:15:29;;;;;;;4.80;1.10;;;;;;;9.88;100.00;101851.22;5116385;28;20110;-78
2023/10/04 03:18:13;;;;;;;3.03;1.00;;;;;;;9.83;100.00;101862.22;5077665;28;20067;-78
2023/10/04 03:21:10;;;;;;;4.75;1.10;;;;;;;9.76;100.00;101856.03;5120611;28;20430;-78
2023/10/04 03:23:55;;;;;;;2.05;0.63;;;;;;;9.78;100.00;101856.63;5114371;28;20046;-78
2023/10/04 03:26:39;;;;;;;3.10;1.00;;;;;;;9.76;100.00;101867.16;5101001;28;20058;-78
2023/10/04 03:29:24;;;;;;;5.55;1.30;;;;;;;9.71;100.00;101855.97;5094599;28;20046;-78
2023/10/04 03:32:09;;;;;;;4.97;1.02;;;;;;;9.62;100.00;101847.25;5097052;27;20034;-79
2023/10/04 03:34:53;;;;;;;4.05;1.00;;;;;;;9.63;100.00;101841.44;5108478;28;20077;-78
2023/10/04 03:37:43;;;;;;;5.93;1.33;;;;;;;9.60;100.00;101844.72;5097415;28;20050;-78
2023/10/04 03:40:46;;;;;;;2.53;0.80;;;;;;;9.56;100.00;101843.56;5124060;28;20058;-78
2023/10/04 03:43:30;;;;;;;7.03;1.25;;;;;;;9.51;100.00;101862.91;5101867;28;20058;-78
2023/10/04 03:46:18;;;;;;;4.65;0.90;;;;;;;9.50;100.00;101863.13;5082904;28;20085;-78
2023/10/04 03:49:02;;;;;;;5.28;0.82;;;;;;;9.45;100.00;101860.31;5098786;28;20058;-78
2023/10/04 03:51:46;;;;;;;4.13;1.00;;;;;;;9.41;100.00;101857.19;5095337;28;20064;-78
2023/10/04 03:54:30;;;;;;;3.08;0.82;;;;;;;9.38;100.00;101855.75;5089554;28;20545;-78
2023/10/04 03:57:14;;;;;;;5.10;1.00;;;;;;;9.37;100.00;101847.72;5098581;28;20100;-78
2023/10/04 03:59:58;;;;;;;3.22;1.05;;;;;;;9.35;100.00;101852.66;5121720;28;20058;-78
2023/10/04 04:02:43;;;;;;;4.95;1.20;;;;;;;9.31;100.00;101851.50;5090942;28;20067;-78
2023/10/04 04:05:28;;;;;;;3.17;0.73;;;;;;;9.28;100.00;101843.69;5081660;28;20149;-78
2023/10/04 04:08:18;;;;;;;3.53;0.77;;;;;;;9.23;100.00;101849.16;5073759;28;20039;-78
2023/10/04 04:11:03;;;;;;;4.43;1.08;;;;;;;9.22;100.00;101858.53;5107900;28;20074;-78
2023/10/04 04:13:47;;;;;;;2.97;1.00;;;;;;;9.18;100.00;101859.03;5079758;28;20039;-78
2023/10/04 04:16:32;;;;;;;5.00;1.10;;;;;;;9.16;100.00;101849.28;5069458;28;20095;-78
2023/10/04 04:19:16;;;;;;;3.80;1.27;;;;;;;9.12;100.00;101848.13;5095112;28;20045;-78
2023/10/04 04:22:01;;;;;;;4.13;1.08;;;;;;;9.10;100.00;101845.59;5107637;28;20034;-79
2023/10/04 04:24:45;;;;;;;3.72;0.90;;;;;;;9.12;100.00;101834.28;5087836;28;20065;-78
2023/10/04 04:27:30;;;;;;;4.03;0.90;;;;;;;9.08;100.00;101836.72;5098631;28;20038;-78
2023/10/04 04:30:22;;;;;;;4.05;0.93;;;;;;;9.05;100.00;101831.66;5086945;28;20042;-78
2023/10/04 04:33:16;;;;;;;3.75;1.23;;;;;;;9.05;100.00;101837.19;5088469;28;20059;-78
2023/10/04 04:36:12;;;;;;;4.53;0.90;;;;;;;8.97;100.00;101829.34;5086085;28;20047;-78
2023/10/04 04:38:56;;;;;;;5.43;1.10;;;;;;;8.98;100.00;101831.00;5108592;28;20070;-78
2023/10/04 04:41:42;;;;;;;4.50;1.20;;;;;;;8.95;100.00;101837.03;5104237;28;20034;-78
2023/10/04 04:44:35;;;;;;;4.28;1.35;;;;;;;8.96;100.00;101833.16;5107096;28;20058;-78
2023/10/04 04:47:22;;;;;;;6.65;1.30;;;;;;;8.94;100.00;101830.66;5093596;28;20080;-78
2023/10/04 04:50:08;;;;;;;3.90;1.27;;;;;;;8.95;100.00;101826.78;5100163;28;20089;-78
2023/10/04 04:52:53;;;;;;;6.60;1.50;;;;;;;8.95;100.00;101825.97;5102601;28;20104;-78
2023/10/04 04:55:38;;;;;;;4.72;1.17;;;;;;;8.93;100.00;101817.06;5105874;28;20038;-78
2023/10/04 04:58:25;;;;;;;3.50;1.13;;;;;;;8.91;100.00;101831.19;5080293;28;20088;-78
2023/10/04 05:01:11;;;;;;;3.40;1.00;;;;;;;8.91;100.00;101835.84;5091628;28;20097;-78
2023/10/04 05:03:55;;;;;;;4.28;1.35;;;;;;;8.90;100.00;101831.41;5120626;28;20042;-78
2023/10/04 05:06:39;;;;;;;3.92;1.20;;;;;;;8.89;100.00;101838.06;5081019;28;20043;-78
2023/10/04 05:09:24;;;;;;;4.00;1.75;;;;;;;8.89;100.00;101838.06;5102569;28;20034;-78
2023/10/04 05:12:08;;;;;;;2.65;0.85;;;;;;;8.93;100.00;101842.00;5111035;28;20494;-78
2023/10/04 05:14:53;;;;;;;3.28;1.05;;;;;;;8.87;100.00;101845.78;5085658;28;20039;-78
2023/10/04 05:17:37;;;;;;;3.55;0.80;;;;;;;8.86;100.00;101856.00;5103649;28;20034;-78
2023/10/04 05:20:21;;;;;;;5.53;1.15;;;;;;;8.86;100.00;101850.47;5111651;28;20046;-78
2023/10/04 05:23:05;;;;;;;3.53;0.85;;;;;;;8.85;100.00;101847.94;5116055;28;20446;-78
2023/10/04 05:25:50;;;;;;;3.85;0.93;;;;;;;8.87;100.00;101845.78;5118268;28;20069;-78
2023/10/04 05:28:35;;;;;;;2.92;0.90;;;;;;;8.84;100.00;101852.66;5104475;28;20169;-78
2023/10/04 05:31:19;;;;;;;6.53;1.00;;;;;;;8.82;100.00;101851.22;5090948;28;20383;-78
2023/10/04 05:34:03;;;;;;;8.65;1.10;;;;;;;8.79;100.00;101848.94;5106195;28;20051;-78
2023/10/04 05:36:47;;;;;;;2.97;0.98;;;;;;;8.81;100.00;101852.31;5102520;28;20065;-78
2023/10/04 05:39:32;;;;;;;4.75;0.93;;;;;;;8.80;100.00;101851.44;5084820;28;20051;-77
2023/10/04 05:42:16;;;;;;;5.65;1.13;;;;;;;8.78;100.00;101850.03;5080274;28;20043;-78
2023/10/04 05:45:00;;;;;;;5.25;0.90;;;;;;;8.75;100.00;101847.75;5093191;28;20070;-78
2023/10/04 05:47:45;;;;;;;5.70;1.20;;;;;;;8.75;100.00;101858.81;5120374;28;20099;-78
2023/10/04 05:50:32;;;;;;;2.78;0.90;;;;;;;8.73;100.00;101857.16;5097142;28;20111;-78
2023/10/04 05:53:19;;;;;;;3.05;1.00;;;;;;;8.76;100.00;101852.22;5106977;28;20039;-77
2023/10/04 05:56:04;;;;;;;4.53;1.35;;;;;;;8.69;100.00;101858.75;5113903;28;20038;-77
2023/10/04 05:58:47;;;;;;;3.42;0.90;;;;;;;8.74;100.00;101863.53;5099672;28;20042;-78
2023/10/04 06:01:34;;;;;;;6.18;1.10;;;;;;;8.73;100.00;101862.69;5118214;28;20046;-78
2023/10/04 06:04:17;;;;;;;4.07;1.02;;;;;;;8.70;100.00;101856.81;5087295;28;20387;-78
2023/10/04 06:07:01;;;;;;;5.05;1.00;;;;;;;8.70;100.00;101860.44;5120349;28;20088;-78
2023/10/04 06:09:46;;;;;;;3.67;1.08;;;;;;;8.67;100.00;101855.38;5088332;28;20058;-78
2023/10/04 06:12:30;;;;;;;3.75;1.02;;;;;;;8.69;100.00;101864.28;5087397;28;20054;-78
2023/10/04 06:15:16;;;;;;;4.32;1.15;;;;;;;8.71;100.00;101875.09;5098892;28;20096;-78
2023/10/04 06:18:00;;;;;;;2.75;1.00;;;;;;;8.68;100.00;101881.16;5084007;28;20062;-78
2023/10/04 06:20:45;;;;;;;3.55;1.02;;;;;;;8.65;100.00;101871.41;5101314;28;20039;-78
2023/10/04 06:23:31;;;;;;;6.70;1.40;;;;;;;8.66;100.00;101873.09;5096940;28;20061;-78
2023/10/04 06:26:17;;;;;;;4.00;1.00;;;;;;;8.67;100.00;101879.47;5103961;28;20557;-78
2023/10/04 06:29:01;;;;;;;4.53;1.20;;;;;;;8.68;100.00;101879.22;5090371;28;20050;-78
2023/10/04 06:31:46;;;;;;;4.45;0.90;;;;;;;8.69;100.00;101883.69;5092175;28;20091;-78
2023/10/04 06:34:30;;;;;;;4.05;0.90;;;;;;;8.73;100.00;101892.34;5081299;28;20038;-78
2023/10/04 06:37:14;;;;;;;3.22;1.00;;;;;;;8.75;100.00;101897.59;5050025;28;20106;-78
2023/10/04 06:39:58;;;;;;;5.18;1.40;;;;;;;8.73;100.00;101908.94;5071567;28;20442;-78
2023/10/04 06:42:45;;;;;;;3.20;0.82;;;;;;;8.76;100.00;101904.84;5082335;28;20058;-78
2023/10/04 06:45:30;;;;;;;5.43;1.52;;;;;;;8.72;100.00;101899.81;5075446;28;20066;-78
2023/10/04 06:48:14;;;;;;;6.72;1.10;;;;;;;8.78;100.00;101897.97;5087026;28;20043;-78
2023/10/04 06:50:58;;;;;;;3.53;0.95;;;;;;;8.79;100.00;101907.13;5101639;28;20035;-78
2023/10/04 06:53:43;;;;;;;6.13;1.10;;;;;;;8.85;100.00;101903.34;5101300;28;20062;-78
2023/10/04 06:56:27;;;;;;;3.13;0.90;;;;;;;8.86;100.00;101910.56;5086701;28;20074;-78
2023/10/04 06:59:12;;;;;;;5.80;1.02;;;;;;;8.87;100.00;101895.63;5082097;28;20067;-77
2023/10/04 07:01:56;;;;;;;6.38;1.30;;;;;;;8.90;100.00;101857.19;5100776;28;20039;-78
2023/10/04 07:04:41;;;;;;;4.05;1.00;;;;;;;8.96;100.00;101863.66;5087395;28;20074;-78
2023/10/04 07:07:26;;;;;;;5.00;1.10;;;;;;;8.97;100.00;101881.97;5093109;28;20063;-78
2023/10/04 07:10:14;;;;;;;5.00;1.05;;;;;;;9.03;100.00;101889.28;5100542;28;20132;-78
2023/10/04 07:12:59;;;;;;;3.67;0.90;;;;;;;9.10;100.00;101903.81;5086364;28;20577;-78
2023/10/04 07:15:44;;;;;;;4.00;0.90;;;;;;;9.14;100.00;101912.47;5100225;28;20042;-77
2023/10/04 07:18:29;;;;;;;5.25;1.10;;;;;;;9.21;100.00;101887.34;5100214;28;20035;-78
2023/10/04 07:21:15;;;;;;;6.90;1.45;;;;;;;9.23;100.00;101883.25;5085754;28;20168;-78
2023/10/04 07:23:59;;;;;;;2.75;1.10;;;;;;;9.28;100.00;101896.38;5099972;28;20042;-78
2023/10/04 07:26:45;;;;;;;5.15;1.02;;;;;;;9.34;100.00;101898.13;5078826;28;20162;-78
2023/10/04 07:29:29;;;;;;;5.30;1.30;;;;;;;9.41;100.00;101904.31;5088976;28;20527;-78
2023/10/04 07:32:13;;;;;;;6.20;1.27;;;;;;;9.45;100.00;101905.50;5091055;28;20445;-78
2023/10/04 07:35:06;;;;;;;4.43;1.10;;;;;;;9.51;100.00;101906.44;5096959;28;20105;-78
2023/10/04 07:37:50;;;;;;;3.50;1.05;;;;;;;9.57;100.00;101905.41;5102048;28;20100;-78
2023/10/04 07:40:35;;;;;;;4.43;1.20;;;;;;;9.60;100.00;101916.84;5084322;28;20047;-78
2023/10/04 07:43:21;;;;;;;3.10;1.52;;;;;;;9.69;100.00;101908.91;5098045;28;20498;-78
2023/10/04 07:46:05;;;;;;;3.92;1.10;;;;;;;9.74;100.00;101913.72;5108883;28;20051;-78
2023/10/04 07:48:50;;;;;;;3.90;1.17;;;;;;;9.79;100.00;101908.25;5089919;28;20099;-78
2023/10/04 07:51:34;;;;;;;2.78;1.10;;;;;;;9.83;100.00;101910.28;5120748;28;20074;-78
2023/10/04 07:54:19;;;;;;;2.03;0.93;;;;;;;9.86;100.00;101914.44;5099085;28;20072;-78
2023/10/04 07:57:03;;;;;;;1.70;0.90;;;;;;;9.90;100.00;101923.94;5094397;28;20065;-78
2023/10/04 07:59:48;;;;;;;4.15;1.17;;;;;;;9.97;100.00;101924.63;5106475;28;20042;-78
2023/10/04 08:02:32;;;;;;;4.13;1.42;;;;;;;10.03;100.00;101934.69;5110535;28;20085;-77
2023/10/04 08:05:24;;;;;;;6.60;1.52;;;;;;;10.11;100.00;101946.44;5104508;28;20053;-78
2023/10/04 08:08:08;;;;;;;4.97;1.10;;;;;;;10.22;100.00;101951.03;5090682;28;20087;-78
2023/10/04 08:10:55;;;;;;;4.45;1.30;;;;;;;10.35;100.00;101961.81;5077451;28;20502;-78
2023/10/04 08:13:39;;;;;;;2.28;0.98;;;;;;;10.52;100.00;101976.47;5088959;28;20030;-78
2023/10/04 08:16:23;;;;;;;3.78;1.27;;;;;;;10.70;100.00;101975.31;5092944;28;20046;-78
2023/10/04 08:19:07;;;;;;;4.88;1.20;;;;;;;10.89;100.00;101984.16;5119576;28;20046;-78
2023/10/04 08:21:51;;;;;;;5.07;1.30;;;;;;;11.10;100.00;101982.44;5120009;28;20049;-78
2023/10/04 08:24:36;;;;;;;5.50;1.33;;;;;;;11.28;100.00;101981.25;5066404;28;20065;-78
2023/10/04 08:27:20;;;;;;;6.22;1.08;;;;;;;11.48;100.00;101965.81;5102420;28;20034;-78
2023/10/04 08:30:06;;;;;;;4.97;1.27;;;;;;;11.69;100.00;101942.63;5120448;28;20088;-78
2023/10/04 08:32:50;;;;;;;4.88;1.50;;;;;;;11.89;100.00;101943.91;5081010;28;20070;-78
2023/10/04 08:35:36;;;;;;;6.90;1.50;;;;;;;12.09;100.00;101944.06;5115658;28;20090;-78
2023/10/04 08:38:20;;;;;;;4.72;1.30;;;;;;;12.31;100.00;101941.09;5091661;28;20070;-78
2023/10/04 08:41:04;;;;;;;9.65;1.67;;;;;;;12.51;100.00;101932.00;5101213;28;20108;-78
2023/10/04 08:43:49;;;;;;;9.57;1.85;;;;;;;12.70;100.00;101935.13;5101466;28;20045;-78
2023/10/04 08:46:34;;;;;;;5.28;1.10;;;;;;;12.88;100.00;101934.63;5092024;28;20578;-78
2023/10/04 08:49:19;;;;;;;5.75;1.45;;;;;;;13.06;100.00;101932.44;5085818;28;20076;-78
2023/10/04 08:52:07;;;;;;;5.72;1.40;;;;;;;13.19;100.00;101937.47;5068288;28;20043;-78
2023/10/04 08:54:55;;;;;;;7.82;1.50;;;;;;;13.33;100.00;101940.59;5077901;28;20046;-78
2023/10/04 08:57:39;;;;;;;8.35;1.75;;;;;;;13.47;100.00;101927.75;5097640;28;20058;-78
2023/10/04 09:00:28;;;;;;;9.80;1.60;;;;;;;13.60;100.00;101932.78;5080721;28;20078;-78
2023/10/04 09:03:12;;;;;;;4.65;1.70;;;;;;;13.70;100.00;101926.34;5097492;28;20047;-78
2023/10/04 09:05:56;;;;;;;9.38;1.77;;;;;;;13.80;100.00;101925.50;5080676;28;20035;-76
2023/10/04 09:08:41;;;;;;;7.85;1.75;;;;;;;13.89;100.00;101922.97;5102584;28;20039;-76
2023/10/04 09:11:25;;;;;;;10.18;1.23;;;;;;;13.96;100.00;101918.78;5075390;28;20396;-78
2023/10/04 09:14:09;;;;;;;7.90;1.60;;;;;;;14.05;100.00;101916.25;5119238;28;20096;-78
2023/10/04 09:17:06;;;;;;;7.90;1.45;;;;;;;14.15;100.00;101920.94;5068122;28;20051;-78
2023/10/04 09:19:52;;;;;;;18.75;2.78;;;;;;;14.22;100.00;101915.91;5095387;28;20038;-78
2023/10/04 09:22:37;;;;;;;9.10;1.60;;;;;;;14.28;100.00;101921.19;5091778;28;20493;-78
2023/10/04 09:25:21;;;;;;;7.97;2.10;;;;;;;14.37;100.00;101920.59;5109765;28;20034;-78
2023/10/04 09:28:08;;;;;;;8.27;1.95;;;;;;;14.46;100.00;101922.53;5098666;28;20091;-78
2023/10/04 09:30:52;;;;;;;6.30;1.40;;;;;;;14.51;100.00;101928.09;5090549;28;20434;-78
2023/10/04 09:33:36;;;;;;;9.52;1.58;;;;;;;14.58;100.00;101930.63;5079758;28;20070;-78
2023/10/04 09:36:32;;;;;;;7.93;1.77;;;;;;;14.63;100.00;101933.38;5115003;28;20050;-77
2023/10/04 09:39:23;;;;;;;10.18;2.10;;;;;;;14.71;100.00;101926.38;5081865;28;20050;-78
2023/10/04 09:42:07;;;;;;;9.10;1.98;;;;;;;14.77;100.00;101922.41;5103592;28;20104;-78
2023/10/04 09:44:55;;;;;;;10.90;2.28;;;;;;;14.88;100.00;101926.81;5098020;28;20043;-78
2023/10/04 09:47:46;;;;;;;10.02;2.03;;;;;;;15.00;100.00;101926.47;5086461;28;20511;-78
2023/10/04 09:50:30;;;;;;;9.15;1.42;;;;;;;15.16;100.00;101918.81;5086306;28;20046;-77
2023/10/04 09:53:15;;;;;;;8.80;1.90;;;;;;;15.33;100.00;101918.41;5103417;28;20038;-76
2023/10/04 09:56:03;;;;;;;10.85;1.88;;;;;;;15.49;100.00;101905.94;5102277;28;20637;-77
2023/10/04 09:58:51;;;;;;;9.48;1.48;;;;;;;15.68;100.00;101902.41;5084530;28;20038;-77
2023/10/04 10:01:37;;;;;;;9.15;1.60;;;;;;;15.86;100.00;101902.53;5073351;28;20510;-77
2023/10/04 10:04:28;;;;;;;13.75;2.40;;;;;;;16.05;100.00;101890.59;5099075;28;20100;-78
2023/10/04 10:07:17;;;;;;;9.13;2.03;;;;;;;16.23;100.00;101892.59;5060424;28;20055;-77
2023/10/04 10:10:13;;;;;;;11.98;2.00;;;;;;;16.40;100.00;101903.31;5090261;28;20039;-77
2023/10/04 10:12:59;;;;;;;10.05;1.80;;;;;;;16.59;100.00;101908.97;5090548;28;20066;-78
2023/10/04 10:15:43;;;;;;;10.43;1.88;;;;;;;16.76;100.00;101916.88;5077665;28;20046;-77
2023/10/04 10:18:27;;;;;;;8.90;2.03;;;;;;;16.91;100.00;101911.09;5112886;28;20061;-77
2023/10/04 10:21:12;;;;;;;9.85;1.70;;;;;;;17.08;100.00;101899.31;5073021;28;20093;-77
2023/10/04 10:23:57;;;;;;;7.13;1.55;;;;;;;17.27;100.00;101901.25;5076705;28;20042;-77
2023/10/04 10:26:41;;;;;;;8.10;1.50;;;;;;;17.42;100.00;101901.00;5085144;28;20039;-78
2023/10/04 10:29:26;;;;;;;9.93;1.50;;;;;;;17.59;100.00;101883.59;5078859;28;20043;-77
2023/10/04 10:32:20;;;;;;;9.40;1.40;;;;;;;17.77;100.00;101895.88;5101856;27;20474;-77
2023/10/04 10:35:07;;;;;;;8.45;1.55;;;;;;;17.90;100.00;101897.09;5082969;28;20039;-77
2023/10/04 10:37:51;;;;;;;11.30;1.83;;;;;;;18.11;100.00;101883.47;5105632;28;20095;-78
2023/10/04 10:40:37;;;;;;;8.07;1.27;;;;;;;18.19;100.00;101888.38;5078305;28;20042;-77
2023/10/04 10:43:22;;;;;;;11.02;1.83;;;;;;;18.37;100.00;101873.38;5077401;28;20066;-78
2023/10/04 10:46:34;;;;;;;8.43;1.55;;;;;;;18.49;100.00;101876.47;5098973;28;20035;-78
2023/10/04 10:49:50;;;;;;;7.65;1.75;;;;;;;18.66;100.00;101874.97;5101128;28;20176;-78
2023/10/04 10:52:38;;;;;;;10.30;2.15;;;;;;;18.74;100.00;101863.84;5093144;28;20074;-78
2023/10/04 10:55:27;;;;;;;7.13;1.33;;;;;;;18.89;100.00;101865.47;5065545;28;20046;-77
2023/10/04 10:58:12;;;;;;;7.10;1.55;;;;;;;19.04;100.00;101869.91;5115276;28;20056;-78
2023/10/04 11:00:56;;;;;;;5.95;1.55;;;;;;;19.16;100.00;101858.88;5113785;28;20478;-77
2023/10/04 11:03:44;;;;;;;6.97;1.50;;;;;;;19.27;100.00;101870.75;5109475;28;20093;-77
2023/10/04 11:06:29;;;;;;;8.27;2.15;;;;;;;19.40;100.00;101869.03;5079266;28;20035;-78
2023/10/04 11:09:17;;;;;;;8.10;2.08;;;;;;;19.55;100.00;101870.59;5094023;28;20054;-77
2023/10/04 11:12:01;;;;;;;8.75;1.50;;;;;;;19.66;100.00;101868.38;5091120;28;20066;-77
2023/10/04 11:14:45;;;;;;;8.38;1.50;;;;;;;19.78;100.00;101865.78;5090424;28;20184;-77
2023/10/04 11:17:30;;;;;;;9.63;1.50;;;;;;;19.96;100.00;101853.44;5086522;28;20046;-77
2023/10/04 11:20:17;;;;;;;11.25;1.92;;;;;;;20.11;100.00;101852.16;5096982;28;20100;-77
2023/10/04 11:23:01;;;;;;;6.57;1.42;;;;;;;20.20;100.00;101840.94;5095828;28;20076;-75
2023/10/04 11:25:46;;;;;;;7.22;1.70;;;;;;;20.25;100.00;101832.28;5075765;28;20510;-75
2023/10/04 11:28:30;;;;;;;11.48;1.95;;;;;;;20.29;100.00;101831.31;5090450;28;20119;-75
2023/10/04 11:31:14;;;;;;;9.80;1.80;;;;;;;20.37;100.00;101832.50;5090501;28;20101;-75
2023/10/04 11:34:00;;;;;;;8.00;1.33;;;;;;;20.41;100.00;101832.66;5102179;28;20108;-75
2023/10/04 11:36:45;;;;;;;7.38;1.65;;;;;;;20.46;100.00;101835.34;5082657;28;20078;-75
2023/10/04 11:39:34;;;;;;;7.18;1.50;;;;;;;20.47;100.00;101839.81;5083971;28;20047;-76
2023/10/04 11:42:20;;;;;;;6.25;1.40;;;;;;;20.50;100.00;101836.31;5071483;28;20036;-75
2023/10/04 11:45:20;;;;;;;4.82;1.00;;;;;;;20.51;100.00;101835.19;5069871;28;20105;-75
2023/10/04 11:48:11;;;;;;;8.68;1.98;;;;;;;20.56;100.00;101832.22;5097500;28;20063;-75
2023/10/04 11:50:55;;;;;;;7.47;1.60;;;;;;;20.61;100.00;101822.75;5091312;28;20488;-75
2023/10/04 11:53:45;;;;;;;10.27;1.75;;;;;;;20.68;100.00;101823.94;5084524;28;20090;-75
2023/10/04 11:56:30;;;;;;;7.90;1.80;;;;;;;20.83;100.00;101821.78;5091949;28;20039;-75
2023/10/04 11:59:28;;;;;;;6.88;1.58;;;;;;;20.91;100.00;101821.78;5082079;28;20169;-75
2023/10/04 12:02:15;;;;;;;5.05;1.08;;;;;;;20.98;100.00;101810.81;5076033;28;20039;-75
2023/10/04 12:05:02;;;;;;;5.97;1.80;;;;;;;21.03;100.00;101795.66;5048990;28;20098;-75
2023/10/04 12:07:47;;;;;;;8.18;1.63;;;;;;;21.10;100.00;101807.31;5078996;28;20047;-75
2023/10/04 12:10:31;;;;;;;6.85;1.73;;;;;;;21.14;100.00;101807.47;5062681;28;20035;-75
2023/10/04 12:13:15;;;;;;;6.47;1.52;;;;;;;21.18;99.39;101808.47;5076766;28;20321;-74
2023/10/04 12:16:00;;;;;;;6.13;1.67;;;;;;;21.15;100.00;101798.66;5082207;28;20541;-74
2023/10/04 12:18:45;;;;;;;7.95;1.40;;;;;;;21.23;100.00;101797.00;5096753;28;20448;-74
2023/10/04 12:21:30;;;;;;;4.75;1.40;;;;;;;21.30;100.00;101799.28;5079589;28;20388;-74
2023/10/04 12:24:15;;;;;;;7.32;1.77;;;;;;;21.37;100.00;101788.34;5068247;28;20051;-75
2023/10/04 12:27:00;;;;;;;9.32;1.70;;;;;;;21.30;95.97;101776.69;5096072;28;20555;-74
2023/10/04 12:29:45;;;;;;;7.20;1.55;;;;;;;21.32;96.73;101774.38;5073058;28;20042;-75
2023/10/04 12:32:29;;;;;;;6.90;1.60;;;;;;;21.32;95.83;101769.53;5066181;28;20400;-75
2023/10/04 12:35:14;;;;;;;8.55;1.58;;;;;;;21.46;91.30;101769.38;5095251;28;20059;-74
2023/10/04 12:37:58;;;;;;;8.38;1.90;;;;;;;21.54;89.54;101765.69;5109808;28;20031;-73
2023/10/04 12:40:42;;;;;;;8.38;1.73;;;;;;;21.66;86.52;101764.13;5078395;28;20046;-74
2023/10/04 12:43:27;;;;;;;8.63;1.50;;;;;;;21.75;87.38;101742.28;5117944;28;20543;-74
2023/10/04 12:46:11;;;;;;;4.55;1.23;;;;;;;21.79;88.99;101738.44;5097586;28;20038;-74